createdAt,value
2022-12-13T00:01:47.211Z,30.97
2022-12-13T00:04:15.522Z,43.80
2022-12-13T00:06:45.394Z,30.60
2022-12-13T00:09:15.081Z,34.83
2022-12-13T00:11:43.337Z,35.77
2022-12-13T00:14:11.648Z,34.73
2022-12-13T00:16:39.580Z,33.63
2022-12-13T00:19:07.987Z,28.97
2022-12-13T00:21:36.184Z,35.73
2022-12-13T00:24:08.281Z,56.30
2022-12-13T00:26:36.608Z,36.73
2022-12-13T00:29:07.324Z,29.10
2022-12-13T00:31:59.270Z,30.97
2022-12-13T00:34:24.657Z,34.20
2022-12-13T00:36:54.122Z,38.17
2022-12-13T00:39:23.564Z,34.67
2022-12-13T00:41:52.147Z,35.53
2022-12-13T00:44:20.416Z,30.37
2022-12-13T00:46:51.709Z,30.33
2022-12-13T00:49:20.318Z,29.50
2022-12-13T00:51:49.633Z,29.93
2022-12-13T00:54:17.708Z,32.03
2022-12-13T00:56:46.969Z,27.13
2022-12-13T00:59:16.157Z,36.47
2022-12-13T01:01:44.480Z,27.03
2022-12-13T01:04:13.241Z,29.43
2022-12-13T01:06:43.239Z,29.80
2022-12-13T01:09:17.114Z,28.97
2022-12-13T01:11:46.978Z,32.87
2022-12-13T01:14:15.346Z,30.80
2022-12-13T01:16:43.547Z,36.23
2022-12-13T01:19:11.445Z,29.97
2022-12-13T01:21:39.398Z,31.17
2022-12-13T01:24:08.369Z,31.17
2022-12-13T01:26:36.419Z,32.67
2022-12-13T01:29:05.930Z,35.53
2022-12-13T01:31:34.076Z,36.97
2022-12-13T01:34:10.680Z,32.80
2022-12-13T01:36:39.337Z,29.47
2022-12-13T01:39:07.763Z,31.37
2022-12-13T01:41:43.438Z,34.00
2022-12-13T01:44:44.476Z,35.67
2022-12-13T01:47:17.437Z,31.07
2022-12-13T01:49:45.780Z,29.33
2022-12-13T01:52:16.359Z,32.50
2022-12-13T01:54:50.025Z,32.13
2022-12-13T01:57:21.099Z,31.13
2022-12-13T01:59:51.464Z,28.47
2022-12-13T02:02:20.980Z,31.93
2022-12-13T02:04:54.886Z,42.50
2022-12-13T02:07:27.710Z,37.57
2022-12-13T02:09:58.420Z,29.37
2022-12-13T02:12:30.342Z,35.20
2022-12-13T02:15:00.391Z,33.43
2022-12-13T02:17:44.954Z,32.57
2022-12-13T02:20:49.965Z,34.80
2022-12-13T02:23:34.646Z,31.33
2022-12-13T02:26:42.514Z,27.40
2022-12-13T02:29:34.639Z,26.00
2022-12-13T02:32:11.415Z,34.87
2022-12-13T02:34:45.766Z,35.27
2022-12-13T02:37:21.767Z,29.43
2022-12-13T02:39:55.223Z,37.00
2022-12-13T02:42:27.597Z,29.10
2022-12-13T02:45:01.188Z,28.90
2022-12-13T02:47:33.203Z,25.53
2022-12-13T02:50:05.209Z,32.50
2022-12-13T02:52:34.001Z,33.17
2022-12-13T02:55:08.225Z,33.27
2022-12-13T02:57:38.463Z,33.37
2022-12-13T03:00:09.474Z,29.90
2022-12-13T03:02:46.786Z,32.97
2022-12-13T03:05:43.534Z,31.30
2022-12-13T03:08:23.660Z,33.23
2022-12-13T03:11:04.523Z,31.30
2022-12-13T03:13:38.674Z,31.77
2022-12-13T03:16:14.447Z,31.47
2022-12-13T03:18:54.219Z,35.97
2022-12-13T03:21:23.493Z,28.83
2022-12-13T03:23:51.862Z,28.97
2022-12-13T03:26:22.313Z,24.87
2022-12-13T03:28:50.205Z,29.57
2022-12-13T03:31:18.460Z,26.60
2022-12-13T03:33:47.064Z,30.57
2022-12-13T03:36:18.839Z,25.87
2022-12-13T03:38:47.480Z,27.50
2022-12-13T03:41:20.279Z,24.70
2022-12-13T03:43:48.424Z,25.03
2022-12-13T03:46:16.646Z,27.03
2022-12-13T03:48:44.551Z,27.83
2022-12-13T03:51:12.495Z,27.80
2022-12-13T03:53:41.748Z,30.40
2022-12-13T03:56:09.640Z,27.63
2022-12-13T03:58:38.506Z,30.40
2022-12-13T04:01:08.038Z,27.63
2022-12-13T04:03:36.969Z,35.37
2022-12-13T04:06:05.930Z,32.90
2022-12-13T04:08:34.150Z,28.87
2022-12-13T04:11:24.699Z,32.80
2022-12-13T04:13:52.595Z,27.43
2022-12-13T04:16:20.536Z,32.20
2022-12-13T04:18:48.594Z,27.83
2022-12-13T04:21:16.761Z,31.07
2022-12-13T04:23:44.737Z,35.80
2022-12-13T04:26:14.216Z,30.83
2022-12-13T04:28:42.253Z,31.00
2022-12-13T04:31:10.303Z,26.93
2022-12-13T04:33:38.381Z,30.80
2022-12-13T04:36:06.842Z,25.40
2022-12-13T04:38:34.764Z,31.43
2022-12-13T04:41:07.282Z,28.70
2022-12-13T04:43:36.737Z,29.43
2022-12-13T04:46:04.802Z,26.93
2022-12-13T04:48:33.450Z,28.50
2022-12-13T04:51:02.283Z,30.20
2022-12-13T04:53:30.524Z,26.63
2022-12-13T04:55:58.517Z,27.87
2022-12-13T04:58:26.492Z,28.17
2022-12-13T05:00:55.790Z,32.53
2022-12-13T05:03:24.238Z,27.53
2022-12-13T05:05:52.144Z,29.30
2022-12-13T05:08:20.105Z,33.90
2022-12-13T05:10:48.040Z,34.00
2022-12-13T05:13:16.046Z,25.43
2022-12-13T05:15:43.976Z,33.07
2022-12-13T05:18:13.313Z,31.27
2022-12-13T05:20:41.216Z,31.43
2022-12-13T05:23:10.022Z,38.03
2022-12-13T05:25:37.917Z,34.50
2022-12-13T05:28:26.860Z,38.23
2022-12-13T05:30:55.415Z,55.47
2022-12-13T05:33:39.050Z,38.13
2022-12-13T05:36:07.769Z,32.77
2022-12-13T05:38:35.972Z,33.90
2022-12-13T05:41:03.878Z,33.50
2022-12-13T05:43:42.402Z,33.83
2022-12-13T05:46:12.457Z,34.80
2022-12-13T05:48:42.035Z,31.03
2022-12-13T05:51:12.032Z,26.07
2022-12-13T05:53:40.968Z,31.80
2022-12-13T05:56:10.452Z,31.70
2022-12-13T05:58:41.156Z,40.90
2022-12-13T06:01:10.958Z,32.87
2022-12-13T06:03:39.050Z,30.70
2022-12-13T06:06:10.509Z,30.50
2022-12-13T06:08:38.719Z,30.77
2022-12-13T06:11:11.657Z,32.10
2022-12-13T06:13:43.239Z,27.30
2022-12-13T06:16:21.863Z,32.57
2022-12-13T06:18:54.454Z,33.27
2022-12-13T06:21:31.184Z,28.20
2022-12-13T06:24:11.543Z,26.90
2022-12-13T06:26:39.347Z,24.63
2022-12-13T06:29:07.333Z,34.97
2022-12-13T06:31:35.201Z,28.00
2022-12-13T06:34:14.925Z,29.90
2022-12-13T06:36:44.673Z,34.93
2022-12-13T06:39:12.583Z,44.93
2022-12-13T06:41:40.607Z,37.93
2022-12-13T06:44:08.451Z,41.37
2022-12-13T06:46:36.406Z,34.13
2022-12-13T06:49:08.767Z,32.43
2022-12-13T06:51:36.549Z,28.07
2022-12-13T06:54:05.706Z,29.70
2022-12-13T06:56:33.830Z,30.47
2022-12-13T06:59:02.399Z,31.17
2022-12-13T07:01:37.561Z,28.97
2022-12-13T07:04:29.012Z,32.70
2022-12-13T07:06:54.761Z,31.07
2022-12-13T07:09:24.030Z,34.60
2022-12-13T07:11:52.597Z,29.23
2022-12-13T07:14:20.853Z,32.83
2022-12-13T07:16:48.723Z,29.93
2022-12-13T07:19:23.419Z,28.63
2022-12-13T07:21:52.715Z,30.17
2022-12-13T07:24:20.777Z,31.57
2022-12-13T07:26:50.014Z,29.17
2022-12-13T07:29:22.689Z,30.83
2022-12-13T07:31:50.819Z,36.60
2022-12-13T07:34:18.755Z,31.37
2022-12-13T07:36:46.721Z,38.20
2022-12-13T07:39:14.554Z,39.10
2022-12-13T07:41:42.416Z,37.03
2022-12-13T07:44:11.564Z,38.47
2022-12-13T07:46:39.433Z,37.07
2022-12-13T07:49:07.474Z,41.47
2022-12-13T07:51:35.578Z,39.87
2022-12-13T07:54:06.791Z,40.03
2022-12-13T07:56:35.359Z,39.47
2022-12-13T07:59:03.513Z,36.93
2022-12-13T08:01:34.543Z,94.93
2022-12-13T08:04:02.857Z,82.63
2022-12-13T08:06:31.091Z,60.33
2022-12-13T08:08:59.197Z,60.87
2022-12-13T08:11:27.133Z,55.10
2022-12-13T08:13:55.056Z,57.70
2022-12-13T08:16:26.383Z,58.07
2022-12-13T08:19:01.161Z,62.63
2022-12-13T08:24:23.475Z,82.67
2022-12-13T08:26:51.492Z,40.40
2022-12-13T08:29:22.914Z,44.27
2022-12-13T08:32:02.130Z,40.47
2022-12-13T08:34:32.644Z,53.20
2022-12-13T08:37:02.417Z,40.80
2022-12-13T08:39:34.467Z,38.70
2022-12-13T08:42:16.415Z,39.43
2022-12-13T08:44:46.837Z,40.63
2022-12-13T08:47:22.642Z,46.23
2022-12-13T08:49:55.283Z,35.90
2022-12-13T08:52:24.073Z,42.50
2022-12-13T08:54:52.522Z,42.33
2022-12-13T08:57:20.566Z,39.80
2022-12-13T08:59:48.419Z,39.80
2022-12-13T09:02:17.451Z,45.50
2022-12-13T09:04:45.393Z,38.43
2022-12-13T09:07:14.601Z,39.53
2022-12-13T09:09:42.522Z,44.37
2022-12-13T09:12:29.651Z,37.43
2022-12-13T09:15:01.369Z,43.67
2022-12-13T09:17:36.448Z,46.83
2022-12-13T09:20:10.327Z,51.13
2022-12-13T09:23:01.326Z,39.40
2022-12-13T09:25:36.559Z,37.27
2022-12-13T09:28:07.906Z,36.57
2022-12-13T09:30:35.994Z,34.27
2022-12-13T09:33:18.005Z,36.03
2022-12-13T09:35:53.782Z,30.13
2022-12-13T09:38:23.321Z,33.90
2022-12-13T09:40:58.785Z,29.03
2022-12-13T09:43:33.109Z,25.60
2022-12-13T09:46:22.119Z,24.77
2022-12-13T09:48:53.014Z,23.13
2022-12-13T09:51:44.114Z,26.73
2022-12-13T09:54:20.467Z,24.13
2022-12-13T09:56:50.887Z,23.83
2022-12-13T09:59:22.531Z,26.87
2022-12-13T10:01:50.413Z,27.90
2022-12-13T10:04:19.361Z,24.17
2022-12-13T10:06:47.397Z,21.17
2022-12-13T10:09:15.521Z,26.47
2022-12-13T10:11:53.116Z,26.73
2022-12-13T10:14:27.674Z,30.80
2022-12-13T10:16:59.042Z,23.33
2022-12-13T10:19:34.872Z,26.50
2022-12-13T10:22:05.809Z,26.23
2022-12-13T10:24:50.525Z,28.90
2022-12-13T10:27:21.728Z,28.77
2022-12-13T10:30:10.667Z,26.93
2022-12-13T10:32:47.129Z,24.80
2022-12-13T10:35:24.393Z,28.93
2022-12-13T10:37:53.003Z,21.23
2022-12-13T10:40:32.058Z,25.63
2022-12-13T10:43:14.181Z,31.50
2022-12-13T10:45:43.185Z,26.60
2022-12-13T10:48:21.319Z,21.97
2022-12-13T10:51:00.430Z,25.73
2022-12-13T10:53:32.404Z,17.40
2022-12-13T10:56:02.129Z,30.00
2022-12-13T10:58:41.046Z,22.83
2022-12-13T11:01:14.948Z,22.63
2022-12-13T11:03:42.920Z,19.87
2022-12-13T11:06:15.000Z,25.80
2022-12-13T11:08:43.100Z,21.33
2022-12-13T11:11:13.020Z,24.23
2022-12-13T11:13:46.051Z,20.00
2022-12-13T11:16:25.003Z,22.57
2022-12-13T11:18:56.477Z,20.60
2022-12-13T11:21:27.204Z,19.13
2022-12-13T11:23:57.470Z,27.93
2022-12-13T11:26:31.967Z,22.53
2022-12-13T11:29:19.375Z,21.87
2022-12-13T11:31:55.899Z,18.07
2022-12-13T11:34:33.740Z,23.13
2022-12-13T11:37:12.212Z,23.10
2022-12-13T11:39:44.435Z,19.90
2022-12-13T11:42:23.497Z,18.67
2022-12-13T11:45:01.828Z,19.17
2022-12-13T11:47:36.751Z,21.57
2022-12-13T11:50:16.465Z,18.40
2022-12-13T11:52:53.442Z,19.50
2022-12-13T11:55:25.481Z,21.73
2022-12-13T11:57:59.703Z,20.20
2022-12-13T12:00:37.945Z,21.80
2022-12-13T12:03:18.386Z,17.37
2022-12-13T12:05:56.064Z,25.93
2022-12-13T12:08:34.946Z,17.57
2022-12-13T12:11:13.204Z,21.83
2022-12-13T12:13:51.236Z,16.93
2022-12-13T12:16:30.667Z,19.00
2022-12-13T12:19:01.345Z,18.87
2022-12-13T12:22:12.345Z,21.50
2022-12-13T12:24:33.534Z,21.67
2022-12-13T12:27:22.237Z,20.73
2022-12-13T12:30:03.867Z,18.30
2022-12-13T12:32:42.842Z,24.57
2022-12-13T12:35:26.051Z,22.33
2022-12-13T12:38:00.914Z,20.43
2022-12-13T12:41:15.816Z,25.43
2022-12-13T12:43:42.098Z,18.00
2022-12-13T12:46:26.557Z,17.93
2022-12-13T12:49:17.957Z,19.00
2022-12-13T12:51:51.947Z,18.73
2022-12-13T12:54:33.950Z,14.33
2022-12-13T12:57:10.959Z,19.10
2022-12-13T12:59:49.248Z,18.87
2022-12-13T13:02:23.029Z,19.17
2022-12-13T13:04:59.105Z,19.33
2022-12-13T13:07:32.496Z,15.73
2022-12-13T13:10:25.607Z,15.50
2022-12-13T13:13:11.647Z,13.97
2022-12-13T13:16:06.060Z,14.53
2022-12-13T13:18:51.474Z,15.17
2022-12-13T13:21:46.038Z,21.97
2022-12-13T13:24:25.688Z,16.53
2022-12-13T13:26:55.882Z,22.37
2022-12-13T13:29:33.303Z,12.43
2022-12-13T13:32:05.156Z,16.07
2022-12-13T13:34:36.300Z,18.70
2022-12-13T13:37:23.001Z,16.33
2022-12-13T13:40:00.777Z,16.60
2022-12-13T13:42:29.850Z,19.53
2022-12-13T13:45:20.044Z,14.40
2022-12-13T13:47:55.710Z,17.13
2022-12-13T13:50:50.138Z,14.30
2022-12-13T13:53:51.513Z,18.07
2022-12-13T13:56:36.225Z,14.10
2022-12-13T13:59:58.913Z,13.07
2022-12-13T14:02:58.581Z,13.07
2022-12-13T14:06:12.695Z,11.07
2022-12-13T14:09:00.199Z,17.63
2022-12-13T14:12:04.712Z,12.67
2022-12-13T14:15:01.425Z,20.80
2022-12-13T14:18:02.722Z,19.27
2022-12-13T14:20:46.711Z,12.77
2022-12-13T14:23:30.232Z,16.10
2022-12-13T14:26:11.779Z,12.27
2022-12-13T14:28:48.652Z,13.73
2022-12-13T14:31:22.491Z,12.37
2022-12-13T14:33:52.985Z,14.23
2022-12-13T14:36:29.031Z,16.37
2022-12-13T14:39:05.111Z,13.13
2022-12-13T14:41:33.993Z,17.97
2022-12-13T14:44:17.369Z,16.03
2022-12-13T14:46:58.243Z,12.17
2022-12-13T14:49:28.569Z,20.30
2022-12-13T14:52:01.701Z,18.73
2022-12-13T14:54:37.062Z,15.43
2022-12-13T14:57:05.940Z,15.43
2022-12-13T14:59:34.392Z,14.33
2022-12-13T15:02:06.392Z,15.30
2022-12-13T15:04:36.085Z,15.73
2022-12-13T15:07:07.909Z,15.00
2022-12-13T15:09:38.799Z,20.93
2022-12-13T15:12:24.914Z,23.87
2022-12-13T15:14:59.668Z,11.57
2022-12-13T15:17:34.940Z,15.93
2022-12-13T15:20:24.910Z,15.43
2022-12-13T15:23:15.708Z,19.73
2022-12-13T15:26:00.234Z,21.97
2022-12-13T15:28:30.347Z,17.83
2022-12-13T15:31:00.453Z,19.37
2022-12-13T15:33:35.460Z,20.33
2022-12-13T15:36:10.800Z,23.77
2022-12-13T15:38:41.618Z,18.73
2022-12-13T15:41:18.147Z,22.33
2022-12-13T15:43:49.705Z,22.07
2022-12-13T15:46:25.873Z,24.00
2022-12-13T15:48:57.346Z,26.43
2022-12-13T15:51:29.609Z,23.67
2022-12-13T15:54:04.864Z,24.90
2022-12-13T15:56:34.521Z,22.03
2022-12-13T15:59:04.437Z,22.73
2022-12-13T16:01:35.399Z,25.70
2022-12-13T16:04:06.219Z,19.53
2022-12-13T16:06:34.967Z,21.50
2022-12-13T16:09:05.309Z,28.57
2022-12-13T16:11:36.481Z,24.00
2022-12-13T16:14:38.089Z,22.13
2022-12-13T16:17:14.448Z,25.00
2022-12-13T16:19:44.669Z,23.43
2022-12-13T16:22:12.623Z,20.03
2022-12-13T16:24:40.527Z,25.97
2022-12-13T16:27:10.720Z,24.73
2022-12-13T16:29:38.606Z,20.80
2022-12-13T16:32:08.133Z,19.23
2022-12-13T16:34:37.052Z,18.83
2022-12-13T16:37:09.025Z,18.63
2022-12-13T16:39:54.507Z,23.67
2022-12-13T16:42:25.834Z,18.83
2022-12-13T16:45:17.740Z,23.10
2022-12-13T16:47:48.494Z,22.50
2022-12-13T16:50:19.222Z,21.13
2022-12-13T16:52:48.951Z,29.63
2022-12-13T16:55:17.345Z,16.93
2022-12-13T16:57:56.399Z,17.37
2022-12-13T17:00:24.402Z,21.03
2022-12-13T17:02:52.436Z,20.73
2022-12-13T17:05:20.672Z,18.03
2022-12-13T17:07:49.964Z,28.00
2022-12-13T17:10:19.397Z,20.10
2022-12-13T17:12:47.532Z,29.60
2022-12-13T17:15:17.219Z,18.43
2022-12-13T17:17:46.517Z,25.93
2022-12-13T17:20:16.966Z,20.93
2022-12-13T17:22:46.056Z,20.47
2022-12-13T17:25:15.635Z,20.40
2022-12-13T17:27:43.516Z,19.67
2022-12-13T17:30:15.529Z,26.20
2022-12-13T17:32:43.324Z,20.63
2022-12-13T17:35:17.862Z,23.13
2022-12-13T17:37:46.411Z,20.87
2022-12-13T17:40:16.686Z,19.00
2022-12-13T17:42:45.444Z,19.07
2022-12-13T17:45:13.216Z,20.27
2022-12-13T17:47:41.120Z,24.20
2022-12-13T17:50:09.950Z,30.33
2022-12-13T17:52:39.072Z,20.43
2022-12-13T17:55:07.824Z,27.37
2022-12-13T17:57:37.246Z,15.67
2022-12-13T18:00:06.287Z,18.63
2022-12-13T18:02:40.907Z,17.53
2022-12-13T18:05:17.594Z,18.87
2022-12-13T18:07:50.858Z,21.13
2022-12-13T18:10:18.989Z,18.73
2022-12-13T18:12:48.155Z,21.43
2022-12-13T18:15:15.980Z,17.83
2022-12-13T18:18:10.230Z,20.43
2022-12-13T18:20:31.706Z,22.93
2022-12-13T18:22:59.617Z,24.40
2022-12-13T18:25:27.563Z,23.37
2022-12-13T18:28:01.035Z,27.70
2022-12-13T18:30:31.087Z,28.57
2022-12-13T18:32:59.026Z,27.73
2022-12-13T18:35:26.873Z,26.47
2022-12-13T18:37:54.833Z,24.90
2022-12-13T18:40:22.707Z,24.90
2022-12-13T18:42:50.588Z,24.20
2022-12-13T18:45:20.177Z,22.20
2022-12-13T18:47:48.035Z,21.50
2022-12-13T18:50:16.131Z,22.40
2022-12-13T18:52:44.356Z,23.50
2022-12-13T18:55:12.189Z,29.47
2022-12-13T18:57:40.132Z,26.33
2022-12-13T19:00:09.077Z,27.73
2022-12-13T19:02:39.207Z,24.03
2022-12-13T19:05:07.213Z,28.97
2022-12-13T19:07:35.046Z,28.03
2022-12-13T19:10:03.127Z,22.43
2022-12-13T19:12:32.104Z,24.47
2022-12-13T19:14:59.939Z,31.07
2022-12-13T19:17:27.796Z,40.73
2022-12-13T19:19:57.283Z,22.87
2022-12-13T19:22:25.131Z,27.63
2022-12-13T19:24:52.954Z,23.93
2022-12-13T19:27:20.773Z,27.33
2022-12-13T19:29:48.911Z,30.70
2022-12-13T19:32:16.819Z,23.50
2022-12-13T19:34:44.673Z,30.43
2022-12-13T19:37:14.028Z,30.93
2022-12-13T19:39:41.840Z,30.97
2022-12-13T19:42:10.233Z,29.00
2022-12-13T19:44:38.068Z,25.77
2022-12-13T19:47:06.552Z,28.23
2022-12-13T19:49:34.409Z,24.63
2022-12-13T19:52:02.577Z,30.43
2022-12-13T19:54:31.736Z,27.20
2022-12-13T19:57:26.717Z,26.77
2022-12-13T19:59:54.541Z,25.90
2022-12-13T20:02:22.380Z,31.77
2022-12-13T20:04:51.036Z,26.73
2022-12-13T20:07:19.134Z,26.57
2022-12-13T20:09:48.337Z,30.73
2022-12-13T20:12:16.274Z,26.17
2022-12-13T20:14:44.874Z,31.27
2022-12-13T20:17:12.759Z,23.70
2022-12-13T20:19:41.091Z,27.30
2022-12-13T20:22:08.902Z,25.97
2022-12-13T20:24:36.941Z,27.10
2022-12-13T20:27:06.554Z,23.83
2022-12-13T20:29:34.532Z,32.40
2022-12-13T20:32:02.508Z,35.03
2022-12-13T20:34:30.383Z,29.97
2022-12-13T20:36:58.407Z,26.43
2022-12-13T20:39:26.218Z,29.03
2022-12-13T20:41:54.014Z,23.80
2022-12-13T20:44:23.357Z,27.27
2022-12-13T20:46:51.251Z,25.73
2022-12-13T20:49:19.263Z,28.70
2022-12-13T20:51:47.148Z,41.23
2022-12-13T20:54:14.991Z,31.23
2022-12-13T20:56:42.907Z,28.17
2022-12-13T20:59:13.388Z,28.30
2022-12-13T21:01:45.006Z,25.93
2022-12-13T21:04:16.962Z,30.27
2022-12-13T21:06:44.859Z,27.33
2022-12-13T21:09:13.154Z,35.27
2022-12-13T21:11:43.237Z,24.90
2022-12-13T21:14:18.770Z,25.83
2022-12-13T21:16:51.472Z,32.40
2022-12-13T21:19:23.877Z,32.73
2022-12-13T21:21:52.711Z,33.37
2022-12-13T21:24:22.428Z,29.67
2022-12-13T21:26:51.122Z,25.97
2022-12-13T21:29:19.415Z,24.57
2022-12-13T21:31:49.821Z,33.80
2022-12-13T21:34:20.379Z,28.97
2022-12-13T21:36:49.679Z,28.60
2022-12-13T21:39:19.317Z,40.33
2022-12-13T21:41:47.609Z,28.53
2022-12-13T21:44:17.886Z,30.60
2022-12-13T21:49:35.316Z,34.93
2022-12-13T21:52:03.137Z,27.80
2022-12-13T21:54:30.980Z,25.60
2022-12-13T21:57:16.725Z,30.10
2022-12-13T21:59:44.522Z,29.33
2022-12-13T22:02:16.172Z,24.30
2022-12-13T22:04:47.369Z,27.43
2022-12-13T22:07:17.538Z,28.53
2022-12-13T22:09:46.538Z,25.23
2022-12-13T22:12:21.944Z,23.80
2022-12-13T22:14:50.196Z,27.10
2022-12-13T22:17:18.595Z,29.27
2022-12-13T22:19:48.383Z,32.40
2022-12-13T22:22:17.192Z,29.67
2022-12-13T22:24:49.896Z,29.30
2022-12-13T22:27:23.887Z,24.10
2022-12-13T22:29:52.386Z,24.90
2022-12-13T22:32:20.435Z,30.20
2022-12-13T22:34:49.835Z,24.57
2022-12-13T22:37:18.114Z,22.33
2022-12-13T22:39:45.937Z,24.40
2022-12-13T22:42:13.804Z,27.80
2022-12-13T22:44:41.568Z,22.77
2022-12-13T22:47:09.463Z,23.87
2022-12-13T22:49:38.098Z,24.67
2022-12-13T22:52:07.393Z,27.87
2022-12-13T22:54:35.803Z,26.43
2022-12-13T22:57:03.833Z,23.77
2022-12-13T22:59:32.052Z,25.27
2022-12-13T23:02:02.670Z,25.77
2022-12-13T23:04:33.710Z,26.83
2022-12-13T23:07:01.824Z,26.67
2022-12-13T23:09:31.038Z,32.43
2022-12-13T23:12:16.653Z,22.20
2022-12-13T23:14:44.465Z,24.50
2022-12-13T23:17:12.372Z,24.10
2022-12-13T23:19:50.234Z,30.60
2022-12-13T23:22:22.291Z,26.70
2022-12-13T23:24:52.092Z,26.57
2022-12-13T23:27:21.913Z,30.33
2022-12-13T23:29:49.797Z,41.00
2022-12-13T23:32:17.673Z,24.73
2022-12-13T23:34:45.596Z,29.60
2022-12-13T23:37:13.584Z,114.63
2022-12-13T23:39:41.517Z,35.37
2022-12-13T23:42:10.764Z,33.60
2022-12-13T23:44:38.993Z,31.73
2022-12-13T23:47:07.023Z,40.73
2022-12-13T23:49:35.010Z,29.47
2022-12-13T23:52:03.003Z,35.90
2022-12-13T23:54:30.792Z,22.83
2022-12-13T23:56:58.657Z,34.73
2022-12-13T23:59:28.631Z,28.70
